createdAt,value
2018-04-01T00:00:16.576Z,83.78
2018-04-01T00:01:16.743Z,83.59
2018-04-01T00:02:16.910Z,84.07
2018-04-01T00:03:17.066Z,83.59
2018-04-01T00:04:17.232Z,83.97
2018-04-01T00:05:17.391Z,83.78
2018-04-01T00:06:17.563Z,84.26
2018-04-01T00:07:17.730Z,83.69
2018-04-01T00:08:17.885Z,84.26
2018-04-01T00:09:18.064Z,84.26
2018-04-01T00:10:18.322Z,84.36
2018-04-01T00:11:18.398Z,84.26
2018-04-01T00:12:18.572Z,84.26
2018-04-01T00:13:18.735Z,84.64
2018-04-01T00:14:18.907Z,83.69
2018-04-01T00:15:19.094Z,83.78
2018-04-01T00:16:19.233Z,83.40
2018-04-01T00:17:19.389Z,83.12
2018-04-01T00:18:19.553Z,83.59
2018-04-01T00:19:19.713Z,83.65
2018-04-01T00:20:19.872Z,83.78
2018-04-01T00:21:20.033Z,83.65
2018-04-01T00:22:20.199Z,84.03
2018-04-01T00:23:20.364Z,84.50
2018-04-01T00:24:20.527Z,84.31
2018-04-01T00:25:20.690Z,84.22
2018-04-01T00:26:20.866Z,84.36
2018-04-01T00:27:21.024Z,84.31
2018-04-01T00:28:21.187Z,84.41
2018-04-01T00:29:21.349Z,84.22
2018-04-01T00:30:21.780Z,84.22
2018-04-01T00:31:21.657Z,84.22
2018-04-01T00:32:21.818Z,84.03
2018-04-01T00:33:21.981Z,84.50
2018-04-01T00:34:22.144Z,84.78
2018-04-01T00:35:22.315Z,84.88
2018-04-01T00:36:22.481Z,85.07
2018-04-01T00:37:22.634Z,84.88
2018-04-01T00:38:22.795Z,85.07
2018-04-01T00:39:22.962Z,84.69
2018-04-01T00:40:23.114Z,84.69
2018-04-01T00:41:23.280Z,84.50
2018-04-01T00:42:23.437Z,84.78
2018-04-01T00:43:23.607Z,84.88
2018-04-01T00:44:23.758Z,84.98
2018-04-01T00:45:23.919Z,85.17
2018-04-01T00:46:24.076Z,85.26
2018-04-01T00:47:24.244Z,85.45
2018-04-01T00:48:24.404Z,85.17
2018-04-01T00:49:24.566Z,85.36
2018-04-01T00:50:24.729Z,85.26
2018-04-01T00:51:24.885Z,85.36
2018-04-01T00:52:25.050Z,85.36
2018-04-01T00:53:25.211Z,85.26
2018-04-01T00:54:25.372Z,85.55
2018-04-01T00:55:25.538Z,85.55
2018-04-01T00:56:25.701Z,85.55
2018-04-01T00:57:25.861Z,85.93
2018-04-01T00:58:26.023Z,85.45
2018-04-01T00:59:26.186Z,85.17
2018-04-01T01:00:26.347Z,84.78
2018-04-01T01:01:26.508Z,84.88
2018-04-01T01:02:26.677Z,84.88
2018-04-01T01:03:26.835Z,84.78
2018-04-01T01:04:26.999Z,84.83
2018-04-01T01:05:27.169Z,84.59
2018-04-01T01:06:27.327Z,84.50
2018-04-01T01:07:27.478Z,84.69
2018-04-01T01:08:27.651Z,84.55
2018-04-01T01:09:27.812Z,84.55
2018-04-01T01:10:27.974Z,84.45
2018-04-01T01:11:28.133Z,84.92
2018-04-01T01:12:28.310Z,84.45
2018-04-01T01:13:28.471Z,83.78
2018-04-01T01:14:28.634Z,83.22
2018-04-01T01:15:28.812Z,83.40
2018-04-01T01:16:28.977Z,83.31
2018-04-01T01:17:29.153Z,83.31
2018-04-01T01:18:29.316Z,83.69
2018-04-01T01:19:29.482Z,83.59
2018-04-01T01:20:29.646Z,83.03
2018-04-01T01:21:29.810Z,83.40
2018-04-01T01:22:29.972Z,82.65
2018-04-01T01:23:30.135Z,82.65
2018-04-01T01:24:30.300Z,83.12
2018-04-01T01:25:30.467Z,83.50
2018-04-01T01:26:30.630Z,83.40
2018-04-01T01:27:30.796Z,83.12
2018-04-01T01:28:30.959Z,83.03
2018-04-01T01:29:31.164Z,83.22
2018-04-01T01:30:31.284Z,83.97
2018-04-01T01:31:31.451Z,84.07
2018-04-01T01:32:31.611Z,83.59
2018-04-01T01:33:31.778Z,84.64
2018-04-01T01:34:31.935Z,84.17
2018-04-01T01:35:32.112Z,84.45
2018-04-01T01:36:32.271Z,84.07
2018-04-01T01:37:32.434Z,84.26
2018-04-01T01:38:32.596Z,84.26
2018-04-01T01:39:32.762Z,84.12
2018-04-01T01:40:32.926Z,83.59
2018-04-01T01:41:33.082Z,84.59
2018-04-01T01:42:33.241Z,84.22
2018-04-01T01:43:33.406Z,84.26
2018-04-01T01:44:33.567Z,84.64
2018-04-01T01:45:33.723Z,84.74
2018-04-01T01:46:33.886Z,84.74
2018-04-01T01:47:34.047Z,84.64
2018-04-01T01:48:34.203Z,84.83
2018-04-01T01:49:34.368Z,84.64
2018-04-01T01:50:34.535Z,84.74
2018-04-01T01:51:34.698Z,84.74
2018-04-01T01:52:34.876Z,84.45
2018-04-01T01:53:35.040Z,85.02
2018-04-01T01:54:35.198Z,85.02
2018-04-01T01:55:35.369Z,85.87
2018-04-01T01:56:35.540Z,84.92
2018-04-01T01:57:35.697Z,85.11
2018-04-01T01:58:35.852Z,84.92
2018-04-01T01:59:36.014Z,84.83
2018-04-01T02:00:36.179Z,84.45
2018-04-01T02:01:36.338Z,84.26
2018-04-01T02:02:36.510Z,84.17
2018-04-01T02:03:36.667Z,83.69
2018-04-01T02:04:36.830Z,83.97
2018-04-01T02:05:36.995Z,83.40
2018-04-01T02:06:37.155Z,83.69
2018-04-01T02:07:37.323Z,83.40
2018-04-01T02:08:37.485Z,83.03
2018-04-01T02:09:37.659Z,82.93
2018-04-01T02:10:37.817Z,83.12
2018-04-01T02:11:37.979Z,83.12
2018-04-01T02:12:38.148Z,83.69
2018-04-01T02:13:38.309Z,83.88
2018-04-01T02:14:38.470Z,83.69
2018-04-01T02:15:38.640Z,83.69
2018-04-01T02:16:38.802Z,84.07
2018-04-01T02:17:38.964Z,84.07
2018-04-01T02:18:39.127Z,84.17
2018-04-01T02:19:39.284Z,84.17
2018-04-01T02:20:39.451Z,84.26
2018-04-01T02:21:39.614Z,83.88
2018-04-01T02:22:39.777Z,82.93
2018-04-01T02:23:39.947Z,82.65
2018-04-01T02:24:40.116Z,82.65
2018-04-01T02:25:40.274Z,82.08
2018-04-01T02:26:40.436Z,82.46
2018-04-01T02:27:40.599Z,82.65
2018-04-01T02:28:40.764Z,82.36
2018-04-01T02:29:40.924Z,82.27
2018-04-01T02:30:41.086Z,82.84
2018-04-01T02:31:41.300Z,82.84
2018-04-01T02:32:41.406Z,82.74
2018-04-01T02:33:41.568Z,83.22
2018-04-01T02:34:41.728Z,83.78
2018-04-01T02:35:41.890Z,83.40
2018-04-01T02:36:42.060Z,83.50
2018-04-01T02:37:42.227Z,83.69
2018-04-01T02:38:42.385Z,83.69
2018-04-01T02:39:42.546Z,83.69
2018-04-01T02:40:42.710Z,83.78
2018-04-01T02:41:42.868Z,83.50
2018-04-01T02:42:43.034Z,83.22
2018-04-01T02:43:43.200Z,83.69
2018-04-01T02:44:43.359Z,83.88
2018-04-01T02:45:43.528Z,83.69
2018-04-01T02:46:43.693Z,84.07
2018-04-01T02:47:43.851Z,83.69
2018-04-01T02:48:44.015Z,83.88
2018-04-01T02:49:44.174Z,83.69
2018-04-01T02:50:44.337Z,83.78
2018-04-01T02:51:44.498Z,83.69
2018-04-01T02:52:44.666Z,83.59
2018-04-01T02:53:44.848Z,84.26
2018-04-01T02:54:44.991Z,84.17
2018-04-01T02:55:45.158Z,84.64
2018-04-01T02:56:45.325Z,84.55
2018-04-01T02:57:45.487Z,84.55
2018-04-01T02:58:45.646Z,84.64
2018-04-01T02:59:45.808Z,84.92
2018-04-01T03:00:45.979Z,85.21
2018-04-01T03:01:46.140Z,85.87
2018-04-01T03:02:46.305Z,85.68
2018-04-01T03:03:46.472Z,85.87
2018-04-01T03:04:46.634Z,85.97
2018-04-01T03:05:46.793Z,85.21
2018-04-01T03:06:47.647Z,85.02
2018-04-01T03:07:47.080Z,84.83
2018-04-01T03:08:47.245Z,84.98
2018-04-01T03:09:47.406Z,85.07
2018-04-01T03:10:47.563Z,85.36
2018-04-01T03:11:47.728Z,85.64
2018-04-01T03:12:47.888Z,86.02
2018-04-01T03:13:48.055Z,86.68
2018-04-01T03:14:48.216Z,87.06
2018-04-01T03:15:48.382Z,87.63
2018-04-01T03:16:48.540Z,87.45
2018-04-01T03:17:48.690Z,87.54
2018-04-01T03:18:48.851Z,87.73
2018-04-01T03:19:49.014Z,87.35
2018-04-01T03:20:49.180Z,86.59
2018-04-01T03:21:49.349Z,86.40
2018-04-01T03:22:49.498Z,86.40
2018-04-01T03:23:49.660Z,86.78
2018-04-01T03:24:49.832Z,86.30
2018-04-01T03:25:49.987Z,86.49
2018-04-01T03:26:50.147Z,86.49
2018-04-01T03:27:50.307Z,86.59
2018-04-01T03:28:50.465Z,85.83
2018-04-01T03:29:50.631Z,86.02
2018-04-01T03:30:50.798Z,86.11
2018-04-01T03:31:50.954Z,85.93
2018-04-01T03:32:51.116Z,86.02
2018-04-01T03:33:51.277Z,86.11
2018-04-01T03:34:51.442Z,86.11
2018-04-01T03:35:51.605Z,86.21
2018-04-01T03:36:51.768Z,85.26
2018-04-01T03:37:51.929Z,85.36
2018-04-01T03:38:52.089Z,85.93
2018-04-01T03:39:52.256Z,85.64
2018-04-01T03:40:52.417Z,85.64
2018-04-01T03:41:52.579Z,86.11
2018-04-01T03:42:53.658Z,86.21
2018-04-01T03:43:52.951Z,86.30
2018-04-01T03:44:53.117Z,86.30
2018-04-01T03:45:53.286Z,86.49
2018-04-01T03:46:53.443Z,86.78
2018-04-01T03:47:53.607Z,86.11
2018-04-01T03:48:53.771Z,86.11
2018-04-01T03:49:53.942Z,86.30
2018-04-01T03:50:54.108Z,86.21
2018-04-01T03:51:54.265Z,86.21
2018-04-01T03:52:54.430Z,86.21
2018-04-01T03:53:54.588Z,86.11
2018-04-01T03:54:54.749Z,86.59
2018-04-01T03:55:54.912Z,86.59
2018-04-01T03:56:55.076Z,86.40
2018-04-01T03:57:55.238Z,86.11
2018-04-01T03:58:55.395Z,86.21
2018-04-01T03:59:55.555Z,86.30
2018-04-01T04:00:55.722Z,86.25
2018-04-01T04:01:55.889Z,86.35
2018-04-01T04:02:56.040Z,86.25
2018-04-01T04:03:56.205Z,86.11
2018-04-01T04:04:56.366Z,86.07
2018-04-01T04:05:56.527Z,86.07
2018-04-01T04:06:56.691Z,85.97
2018-04-01T04:07:56.856Z,86.07
2018-04-01T04:08:57.013Z,85.97
2018-04-01T04:09:57.176Z,86.16
2018-04-01T04:10:57.334Z,86.35
2018-04-01T04:11:57.494Z,85.87
2018-04-01T04:12:57.660Z,85.87
2018-04-01T04:13:57.831Z,85.49
2018-04-01T04:14:57.975Z,84.92
2018-04-01T04:15:58.143Z,84.74
2018-04-01T04:16:58.311Z,84.64
2018-04-01T04:17:58.469Z,84.26
2018-04-01T04:18:58.636Z,83.88
2018-04-01T04:19:58.796Z,83.69
2018-04-01T04:20:58.953Z,84.36
2018-04-01T04:21:59.119Z,84.26
2018-04-01T04:22:59.279Z,84.45
2018-04-01T04:23:59.447Z,84.74
2018-04-01T04:24:59.611Z,85.59
2018-04-01T04:25:59.773Z,85.49
2018-04-01T04:26:59.942Z,85.30
2018-04-01T04:28:00.098Z,85.78
2018-04-01T04:29:00.281Z,85.68
2018-04-01T04:30:00.428Z,85.59
2018-04-01T04:31:00.598Z,85.78
2018-04-01T04:32:00.761Z,85.78
2018-04-01T04:33:00.920Z,84.92
2018-04-01T04:34:01.086Z,84.92
2018-04-01T04:35:01.243Z,85.68
2018-04-01T04:36:01.413Z,85.59
2018-04-01T04:37:01.573Z,85.30
2018-04-01T04:38:01.740Z,85.49
2018-04-01T04:39:01.897Z,85.30
2018-04-01T04:40:02.056Z,85.30
2018-04-01T04:41:02.225Z,85.59
2018-04-01T04:42:02.383Z,85.49
2018-04-01T04:43:02.547Z,85.78
2018-04-01T04:44:02.713Z,85.02
2018-04-01T04:45:02.865Z,84.83
2018-04-01T04:46:03.032Z,85.68
2018-04-01T04:47:03.199Z,85.40
2018-04-01T04:48:03.694Z,85.49
2018-04-01T04:49:03.925Z,85.40
2018-04-01T04:50:03.963Z,85.02
2018-04-01T04:51:04.144Z,85.02
2018-04-01T04:52:04.259Z,84.92
2018-04-01T04:53:04.413Z,84.92
2018-04-01T04:54:04.500Z,85.06
2018-04-01T04:55:04.678Z,84.78
2018-04-01T04:56:04.796Z,84.78
2018-04-01T04:57:04.577Z,84.55
2018-04-01T04:58:04.748Z,84.49
2018-04-01T04:59:04.908Z,84.87
2018-04-01T05:00:05.074Z,85.21
2018-04-01T05:01:05.228Z,84.87
2018-04-01T05:02:05.390Z,85.02
2018-04-01T05:03:05.553Z,84.68
2018-04-01T05:04:05.716Z,84.55
2018-04-01T05:05:05.882Z,85.21
2018-04-01T05:06:06.045Z,85.11
2018-04-01T05:07:06.207Z,85.59
2018-04-01T05:08:06.364Z,85.40
2018-04-01T05:09:06.529Z,85.40
2018-04-01T05:10:06.692Z,85.40
2018-04-01T05:11:06.854Z,85.97
2018-04-01T05:12:07.011Z,85.68
2018-04-01T05:13:07.180Z,85.40
2018-04-01T05:14:08.177Z,86.44
2018-04-01T05:15:07.467Z,86.16
2018-04-01T05:16:07.635Z,86.07
2018-04-01T05:17:07.853Z,86.07
2018-04-01T05:18:07.968Z,85.97
2018-04-01T05:19:08.129Z,86.54
2018-04-01T05:20:08.292Z,86.63
2018-04-01T05:21:08.457Z,86.44
2018-04-01T05:22:08.621Z,86.25
2018-04-01T05:23:08.785Z,85.87
2018-04-01T05:24:08.944Z,86.07
2018-04-01T05:25:09.106Z,86.07
2018-04-01T05:26:09.269Z,86.07
2018-04-01T05:27:09.424Z,86.25
2018-04-01T05:28:09.589Z,85.87
2018-04-01T05:29:09.758Z,86.30
2018-04-01T05:30:09.920Z,85.68
2018-04-01T05:31:10.089Z,86.07
2018-04-01T05:32:10.253Z,86.07
2018-04-01T05:33:10.415Z,85.87
2018-04-01T05:34:10.575Z,86.07
2018-04-01T05:35:10.740Z,86.16
2018-04-01T05:36:10.910Z,86.07
2018-04-01T05:37:11.071Z,86.16
2018-04-01T05:38:11.234Z,86.07
2018-04-01T05:39:11.399Z,86.35
2018-04-01T05:40:11.560Z,86.07
2018-04-01T05:41:11.721Z,86.44
2018-04-01T05:42:11.895Z,86.44
2018-04-01T05:43:12.060Z,86.44
2018-04-01T05:44:12.252Z,85.97
2018-04-01T05:45:12.396Z,86.82
2018-04-01T05:46:12.556Z,86.07
2018-04-01T05:47:12.721Z,86.16
2018-04-01T05:48:12.884Z,86.07
2018-04-01T05:49:13.048Z,85.97
2018-04-01T05:50:13.212Z,85.78
2018-04-01T05:51:13.401Z,85.40
2018-04-01T05:52:13.559Z,85.97
2018-04-01T05:53:13.705Z,85.97
2018-04-01T05:54:13.864Z,85.49
2018-04-01T05:55:14.027Z,85.40
2018-04-01T05:56:14.188Z,85.87
2018-04-01T05:57:14.355Z,85.87
2018-04-01T05:58:14.514Z,85.87
2018-04-01T05:59:14.685Z,86.07
2018-04-01T06:00:14.844Z,85.97
2018-04-01T06:01:15.010Z,85.78
2018-04-01T06:02:15.166Z,85.78
2018-04-01T06:03:15.330Z,85.59
2018-04-01T06:04:15.495Z,85.91
2018-04-01T06:05:15.656Z,85.53
2018-04-01T06:06:15.827Z,85.53
2018-04-01T06:07:15.984Z,85.44
2018-04-01T06:08:16.153Z,85.63
2018-04-01T06:09:16.319Z,85.91
2018-04-01T06:10:16.479Z,85.06
2018-04-01T06:11:16.638Z,85.72
2018-04-01T06:12:16.810Z,85.16
2018-04-01T06:13:16.969Z,84.97
2018-04-01T06:14:17.130Z,84.97
2018-04-01T06:15:17.297Z,85.25
2018-04-01T06:16:17.467Z,85.53
2018-04-01T06:17:17.627Z,85.53
2018-04-01T06:18:17.788Z,85.72
2018-04-01T06:19:17.950Z,84.97
2018-04-01T06:20:18.117Z,84.87
2018-04-01T06:21:18.282Z,85.25
2018-04-01T06:22:18.444Z,84.87
2018-04-01T06:23:18.620Z,84.87
2018-04-01T06:24:18.779Z,84.97
2018-04-01T06:25:18.947Z,84.59
2018-04-01T06:26:19.109Z,85.44
2018-04-01T06:27:19.271Z,86.49
2018-04-01T06:28:19.437Z,86.30
2018-04-01T06:29:19.598Z,86.11
2018-04-01T06:30:19.769Z,86.01
2018-04-01T06:31:19.936Z,86.01
2018-04-01T06:32:20.101Z,86.20
2018-04-01T06:33:20.266Z,86.11
2018-04-01T06:34:20.429Z,86.20
2018-04-01T06:35:20.595Z,86.11
2018-04-01T06:36:20.756Z,86.30
2018-04-01T06:37:20.922Z,86.30
2018-04-01T06:38:21.091Z,86.77
2018-04-01T06:39:21.254Z,87.53
2018-04-01T06:40:21.425Z,88.76
2018-04-01T06:41:21.590Z,88.86
2018-04-01T06:42:21.753Z,89.81
2018-04-01T06:43:21.917Z,89.19
2018-04-01T06:44:22.078Z,88.90
2018-04-01T06:45:22.273Z,88.43
2018-04-01T06:46:22.408Z,89.57
2018-04-01T06:47:22.568Z,89.53
2018-04-01T06:48:22.731Z,88.95
2018-04-01T06:49:22.892Z,89.24
2018-04-01T06:50:23.086Z,89.38
2018-04-01T06:51:23.229Z,89.19
2018-04-01T06:52:23.392Z,88.71
2018-04-01T06:53:23.559Z,89.47
2018-04-01T06:54:23.725Z,89.19
2018-04-01T06:55:23.890Z,88.90
2018-04-01T06:56:24.054Z,88.43
2018-04-01T06:57:24.213Z,88.24
2018-04-01T06:58:24.407Z,87.86
2018-04-01T06:59:24.546Z,87.29
2018-04-01T07:00:24.704Z,87.67
2018-04-01T07:01:24.875Z,87.52
2018-04-01T07:02:25.034Z,86.95
2018-04-01T07:03:25.213Z,86.57
2018-04-01T07:04:25.360Z,86.00
2018-04-01T07:05:25.521Z,86.76
2018-04-01T07:06:25.691Z,86.86
2018-04-01T07:07:25.845Z,86.76
2018-04-01T07:08:26.006Z,85.81
2018-04-01T07:09:26.167Z,84.86
2018-04-01T07:10:26.334Z,85.15
2018-04-01T07:11:26.498Z,86.00
2018-04-01T07:12:26.670Z,86.38
2018-04-01T07:13:26.836Z,85.62
2018-04-01T07:14:27.000Z,86.00
2018-04-01T07:15:27.171Z,86.29
2018-04-01T07:16:27.328Z,86.19
2018-04-01T07:17:27.496Z,86.47
2018-04-01T07:18:27.658Z,85.62
2018-04-01T07:19:27.840Z,85.10
2018-04-01T07:20:27.984Z,84.72
2018-04-01T07:21:28.144Z,84.81
2018-04-01T07:22:28.318Z,83.86
2018-04-01T07:23:28.477Z,83.76
2018-04-01T07:24:28.639Z,83.39
2018-04-01T07:25:29.703Z,83.86
2018-04-01T07:26:28.999Z,83.19
2018-04-01T07:27:29.169Z,83.29
2018-04-01T07:28:29.336Z,82.91
2018-04-01T07:29:29.496Z,82.53
2018-04-01T07:30:29.658Z,81.90
2018-04-01T07:31:29.816Z,82.00
2018-04-01T07:32:31.695Z,80.86
2018-04-01T07:33:30.115Z,81.05
2018-04-01T07:34:30.291Z,80.76
2018-04-01T07:35:30.464Z,79.94
2018-04-01T07:36:30.628Z,78.80
2018-04-01T07:37:30.785Z,77.56
2018-04-01T07:38:30.948Z,77.56
2018-04-01T07:39:31.115Z,77.89
2018-04-01T07:40:31.287Z,77.13
2018-04-01T07:41:31.474Z,76.27
2018-04-01T07:42:31.629Z,75.23
2018-04-01T07:43:31.796Z,74.75
2018-04-01T07:44:31.957Z,75.23
2018-04-01T07:45:32.125Z,75.89
2018-04-01T07:46:32.296Z,77.09
2018-04-01T07:47:32.463Z,77.00
2018-04-01T07:48:32.631Z,77.28
2018-04-01T07:49:32.806Z,76.81
2018-04-01T07:50:32.978Z,76.27
2018-04-01T07:51:33.144Z,75.42
2018-04-01T07:52:33.314Z,75.70
2018-04-01T07:53:33.480Z,75.36
2018-04-01T07:54:33.653Z,74.56
2018-04-01T07:55:33.822Z,74.08
2018-04-01T07:56:33.996Z,74.08
2018-04-01T07:57:34.166Z,74.18
2018-04-01T07:58:34.342Z,73.51
2018-04-01T07:59:34.500Z,74.69
2018-04-01T08:00:34.667Z,73.74
2018-04-01T08:01:34.836Z,73.26
2018-04-01T08:02:35.705Z,73.17
2018-04-01T08:03:35.130Z,71.55
2018-04-01T08:04:35.296Z,70.88
2018-04-01T08:05:35.465Z,71.45
2018-04-01T08:06:35.641Z,70.02
2018-04-01T08:07:35.808Z,72.41
2018-04-01T08:08:35.977Z,70.40
2018-04-01T08:09:36.137Z,70.02
2018-04-01T08:10:36.312Z,70.63
2018-04-01T08:11:36.472Z,68.98
2018-04-01T08:12:36.738Z,69.17
2018-04-01T08:13:37.073Z,69.17
2018-04-01T08:14:37.026Z,70.06
2018-04-01T08:15:37.195Z,69.54
2018-04-01T08:16:37.365Z,69.45
2018-04-01T08:17:37.527Z,70.47
2018-04-01T08:18:38.208Z,71.51
2018-04-01T08:19:37.877Z,72.56
2018-04-01T08:20:38.044Z,70.47
2018-04-01T08:21:38.213Z,71.51
2018-04-01T08:22:38.372Z,72.37
2018-04-01T08:23:38.542Z,71.89
2018-04-01T08:24:38.700Z,72.24
2018-04-01T08:25:38.867Z,71.89
2018-04-01T08:26:39.037Z,72.42
2018-04-01T08:27:39.205Z,72.46
2018-04-01T08:28:39.389Z,72.56
2018-04-01T08:29:39.548Z,73.28
2018-04-01T08:30:39.716Z,74.27
2018-04-01T08:31:39.884Z,73.22
2018-04-01T08:32:40.049Z,73.41
2018-04-01T08:33:40.222Z,73.47
2018-04-01T08:34:40.391Z,73.95
2018-04-01T08:35:40.554Z,74.62
2018-04-01T08:36:40.767Z,75.32
2018-04-01T08:37:40.892Z,74.65
2018-04-01T08:38:41.055Z,74.90
2018-04-01T08:39:41.216Z,74.90
2018-04-01T08:40:41.386Z,76.33
2018-04-01T08:41:41.552Z,77.09
2018-04-01T08:42:41.725Z,77.47
2018-04-01T08:43:41.887Z,78.99
2018-04-01T08:44:42.055Z,79.81
2018-04-01T08:45:42.224Z,81.43
2018-04-01T08:46:43.206Z,83.52
2018-04-01T08:47:42.553Z,83.90
2018-04-01T08:48:42.679Z,84.81
2018-04-01T08:49:42.841Z,86.71
2018-04-01T08:50:43.013Z,89.09
2018-04-01T08:51:43.174Z,90.04
2018-04-01T08:52:43.345Z,90.52
2018-04-01T08:53:43.510Z,90.99
2018-04-01T08:54:43.674Z,91.75
2018-04-01T08:55:43.846Z,91.28
2018-04-01T08:56:44.013Z,91.08
2018-04-01T08:57:44.185Z,91.28
2018-04-01T08:58:44.345Z,91.75
2018-04-01T08:59:44.503Z,91.47
2018-04-01T09:00:44.667Z,92.03
2018-04-01T09:01:44.839Z,91.89
2018-04-01T09:02:45.003Z,91.03
2018-04-01T09:03:45.166Z,90.56
2018-04-01T09:04:45.339Z,90.47
2018-04-01T09:05:45.501Z,90.37
2018-04-01T09:06:45.662Z,89.32
2018-04-01T09:07:45.830Z,88.75
2018-04-01T09:08:45.997Z,88.13
2018-04-01T09:09:46.160Z,87.23
2018-04-01T09:10:46.323Z,87.99
2018-04-01T09:11:46.493Z,88.28
2018-04-01T09:12:46.664Z,88.51
2018-04-01T09:13:46.820Z,87.46
2018-04-01T09:14:46.984Z,86.51
2018-04-01T09:15:47.151Z,86.36
2018-04-01T09:16:47.325Z,85.99
2018-04-01T09:17:47.487Z,85.27
2018-04-01T09:18:47.649Z,83.07
2018-04-01T09:19:47.822Z,82.31
2018-04-01T09:20:47.986Z,81.97
2018-04-01T09:21:48.150Z,81.21
2018-04-01T09:22:48.317Z,81.55
2018-04-01T09:23:48.505Z,82.92
2018-04-01T09:24:48.651Z,81.68
2018-04-01T09:25:48.826Z,81.49
2018-04-01T09:26:48.995Z,81.46
2018-04-01T09:27:49.162Z,79.83
2018-04-01T09:28:49.328Z,80.94
2018-04-01T09:29:49.505Z,82.37
2018-04-01T09:30:49.669Z,83.98
2018-04-01T09:31:49.835Z,85.28
2018-04-01T09:32:50.009Z,84.75
2018-04-01T09:33:50.178Z,83.56
2018-04-01T09:34:50.343Z,85.56
2018-04-01T09:35:50.505Z,84.52
2018-04-01T09:36:50.725Z,84.70
2018-04-01T09:37:50.864Z,84.17
2018-04-01T09:38:51.033Z,83.80
2018-04-01T09:39:51.200Z,83.56
2018-04-01T09:40:51.367Z,83.37
2018-04-01T09:41:51.531Z,84.13
2018-04-01T09:42:51.707Z,84.08
2018-04-01T09:43:51.874Z,82.69
2018-04-01T09:44:52.046Z,80.98
2018-04-01T09:45:52.216Z,80.02
2018-04-01T09:46:52.388Z,77.91
2018-04-01T09:47:52.555Z,77.20
2018-04-01T09:48:52.724Z,77.26
2018-04-01T09:49:52.908Z,78.03
2018-04-01T09:50:53.055Z,79.89
2018-04-01T09:51:53.224Z,80.08
2018-04-01T09:52:53.397Z,79.60
2018-04-01T09:53:53.566Z,80.52
2018-04-01T09:54:53.734Z,83.28
2018-04-01T09:55:53.900Z,83.42
2018-04-01T09:56:54.082Z,84.85
2018-04-01T09:57:54.248Z,86.76
2018-04-01T09:58:54.414Z,87.61
2018-04-01T09:59:54.588Z,86.85
2018-04-01T10:00:54.751Z,87.99
2018-04-01T10:01:54.913Z,87.99
2018-04-01T10:02:55.084Z,89.61
2018-04-01T10:03:55.248Z,90.28
2018-04-01T10:04:55.417Z,90.28
2018-04-01T10:05:55.584Z,88.52
2018-04-01T10:06:55.747Z,89.99
2018-04-01T10:07:55.920Z,91.32
2018-04-01T10:08:56.084Z,90.66
2018-04-01T10:09:56.253Z,89.51
2018-04-01T10:10:56.423Z,90.28
2018-04-01T10:11:56.590Z,90.47
2018-04-01T10:12:56.751Z,90.28
2018-04-01T10:13:56.920Z,89.80
2018-04-01T10:14:57.090Z,90.37
2018-04-01T10:15:57.250Z,90.66
2018-04-01T10:16:57.415Z,88.85
2018-04-01T10:17:58.161Z,88.56
2018-04-01T10:18:57.756Z,88.04
2018-04-01T10:19:57.922Z,86.99
2018-04-01T10:20:58.083Z,86.70
2018-04-01T10:21:58.254Z,85.17
2018-04-01T10:22:58.420Z,83.36
2018-04-01T10:23:58.576Z,83.26
2018-04-01T10:24:58.749Z,83.41
2018-04-01T10:25:58.922Z,83.93
2018-04-01T10:26:59.085Z,83.45
2018-04-01T10:27:59.250Z,81.46
2018-04-01T10:28:59.418Z,81.89
2018-04-01T10:29:59.580Z,81.89
2018-04-01T10:30:59.746Z,81.32
2018-04-01T10:31:59.910Z,83.18
2018-04-01T10:33:00.082Z,83.56
2018-04-01T10:34:00.250Z,84.70
2018-04-01T10:35:00.431Z,85.08
2018-04-01T10:36:00.613Z,85.71
2018-04-01T10:37:00.784Z,86.66
2018-04-01T10:38:00.963Z,86.85
2018-04-01T10:39:01.121Z,88.75
2018-04-01T10:40:01.290Z,89.56
2018-04-01T10:41:01.455Z,90.33
2018-04-01T10:42:01.615Z,91.37
2018-04-01T10:43:01.781Z,93.65
2018-04-01T10:44:01.949Z,93.41
2018-04-01T10:45:02.119Z,91.47
2018-04-01T10:46:02.286Z,92.13
2018-04-01T10:47:02.446Z,91.94
2018-04-01T10:48:02.617Z,91.28
2018-04-01T10:49:02.775Z,91.75
2018-04-01T10:50:02.946Z,92.56
2018-04-01T10:51:03.110Z,90.80
2018-04-01T10:52:03.281Z,91.37
2018-04-01T10:53:03.446Z,91.18
2018-04-01T10:54:03.611Z,91.51
2018-04-01T10:55:03.843Z,90.94
2018-04-01T10:56:03.942Z,91.22
2018-04-01T10:57:04.118Z,89.28
2018-04-01T10:58:04.290Z,89.37
2018-04-01T10:59:04.456Z,89.75
2018-04-01T11:00:04.632Z,90.04
2018-04-01T11:01:04.793Z,90.52
2018-04-01T11:02:04.963Z,90.61
2018-04-01T11:03:05.149Z,90.70
2018-04-01T11:04:05.318Z,90.70
2018-04-01T11:05:05.537Z,89.56
2018-04-01T11:06:05.670Z,90.14
2018-04-01T11:07:05.847Z,90.42
2018-04-01T11:08:06.014Z,90.23
2018-04-01T11:09:06.177Z,89.47
2018-04-01T11:10:06.352Z,89.23
2018-04-01T11:11:06.506Z,87.85
2018-04-01T11:12:06.679Z,87.89
2018-04-01T11:13:06.836Z,85.60
2018-04-01T11:14:07.000Z,85.66
2018-04-01T11:15:07.167Z,84.80
2018-04-01T11:16:07.334Z,85.08
2018-04-01T11:17:07.507Z,86.13
2018-04-01T11:18:07.670Z,85.89
2018-04-01T11:19:07.838Z,85.32
2018-04-01T11:20:08.006Z,85.41
2018-04-01T11:21:08.169Z,84.41
2018-04-01T11:22:08.336Z,80.87
2018-04-01T11:23:08.501Z,78.49
2018-04-01T11:24:08.672Z,79.06
2018-04-01T11:25:08.845Z,80.01
2018-04-01T11:26:09.008Z,79.53
2018-04-01T11:27:09.171Z,76.90
2018-04-01T11:28:09.337Z,77.67
2018-04-01T11:29:09.504Z,76.73
2018-04-01T11:30:09.675Z,79.11
2018-04-01T11:31:09.899Z,79.97
2018-04-01T11:32:10.006Z,80.22
2018-04-01T11:33:10.177Z,80.79
2018-04-01T11:34:10.347Z,82.60
2018-04-01T11:35:10.522Z,82.27
2018-04-01T11:36:10.683Z,82.18
2018-04-01T11:37:10.844Z,82.65
2018-04-01T11:38:11.013Z,84.04
2018-04-01T11:39:11.183Z,84.52
2018-04-01T11:40:11.348Z,85.94
2018-04-01T11:41:11.514Z,85.28
2018-04-01T11:42:11.685Z,86.04
2018-04-01T11:43:11.850Z,87.46
2018-04-01T11:44:12.022Z,87.18
2018-04-01T11:45:12.210Z,88.51
2018-04-01T11:46:12.374Z,88.60
2018-04-01T11:47:12.526Z,88.60
2018-04-01T11:48:12.692Z,88.60
2018-04-01T11:49:12.855Z,88.04
2018-04-01T11:50:13.018Z,88.08
2018-04-01T11:51:13.192Z,86.65
2018-04-01T11:52:13.356Z,88.08
2018-04-01T11:53:13.578Z,86.36
2018-04-01T11:54:13.680Z,86.46
2018-04-01T11:55:13.846Z,85.08
2018-04-01T11:56:14.027Z,86.22
2018-04-01T11:57:14.178Z,86.61
2018-04-01T11:58:14.352Z,85.94
2018-04-01T11:59:14.520Z,86.94
2018-04-01T12:00:14.688Z,86.65
2018-04-01T12:01:14.857Z,86.75
2018-04-01T12:02:15.094Z,85.51
2018-04-01T12:03:15.190Z,84.84
2018-04-01T12:04:15.359Z,85.03
2018-04-01T12:05:15.687Z,85.17
2018-04-01T12:06:15.770Z,85.08
2018-04-01T12:07:16.035Z,82.12
2018-04-01T12:08:16.254Z,81.26
2018-04-01T12:11:48.818Z,82.50
2018-04-01T12:12:49.210Z,82.21
2018-04-01T12:13:49.165Z,80.12
2018-04-01T12:14:49.318Z,78.64
2018-04-01T12:15:49.488Z,79.07
2018-04-01T12:16:49.653Z,78.03
2018-04-01T12:17:49.826Z,80.07
2018-04-01T12:18:50.154Z,80.26
2018-04-01T12:19:50.348Z,80.64
2018-04-01T12:20:50.701Z,79.88
2018-04-01T12:21:50.703Z,79.40
2018-04-01T12:22:50.618Z,78.23
2018-04-01T12:23:50.784Z,73.83
2018-04-01T12:24:50.947Z,72.37
2018-04-01T12:25:51.332Z,69.70
2018-04-01T12:26:51.253Z,68.42
2018-04-01T12:27:51.518Z,66.61
2018-04-01T12:28:51.542Z,66.61
2018-04-01T12:29:51.976Z,67.14
2018-04-01T12:30:51.920Z,68.32
2018-04-01T12:31:52.174Z,69.76
2018-04-01T12:32:52.387Z,68.38
2018-04-01T12:33:52.515Z,69.53
2018-04-01T12:34:52.843Z,71.02
2018-04-01T12:35:53.075Z,71.27
2018-04-01T12:36:53.037Z,71.91
2018-04-01T12:37:53.226Z,72.57
2018-04-01T12:38:53.586Z,74.38
2018-04-01T12:39:53.502Z,73.21
2018-04-01T12:40:53.872Z,74.29
2018-04-01T12:41:54.029Z,73.52
2018-04-01T12:42:54.257Z,73.52
2018-04-01T12:43:54.184Z,73.11
2018-04-01T12:44:54.648Z,72.72
2018-04-01T12:45:54.580Z,73.49
2018-04-01T12:46:54.766Z,75.34
2018-04-01T12:47:55.012Z,73.68
2018-04-01T12:48:55.180Z,73.30
2018-04-01T12:49:55.361Z,75.11
2018-04-01T12:50:55.736Z,73.81
2018-04-01T12:51:55.650Z,72.38
2018-04-01T12:52:55.835Z,71.23
2018-04-01T12:53:55.880Z,72.63
2018-04-01T12:54:56.254Z,74.38
2018-04-01T12:55:56.483Z,73.52
2018-04-01T12:56:56.289Z,73.14